createdAt,value
2018-10-11T00:00:56.557Z,96800.80
2018-10-11T00:03:23.995Z,96797.80
2018-10-11T00:05:51.518Z,96807.87
2018-10-11T00:08:18.994Z,96811.72
2018-10-11T00:10:46.446Z,96819.12
2018-10-11T00:13:13.916Z,96817.23
2018-10-11T00:15:41.362Z,96812.31
2018-10-11T00:18:08.819Z,96813.96
2018-10-11T00:20:36.220Z,96812.83
2018-10-11T00:23:03.631Z,96804.00
2018-10-11T00:25:31.084Z,96799.73
2018-10-11T00:27:58.558Z,96802.93
2018-10-11T00:30:25.979Z,96794.31
2018-10-11T00:32:53.472Z,96806.17
2018-10-11T00:35:20.930Z,96801.30
2018-10-11T00:37:48.375Z,96794.40
2018-10-11T00:40:15.815Z,96800.05
2018-10-11T00:42:43.299Z,96796.95
2018-10-11T00:45:10.735Z,96802.52
2018-10-11T00:47:38.171Z,96797.38
2018-10-11T00:50:05.664Z,96795.36
2018-10-11T00:52:33.127Z,96800.02
2018-10-11T00:55:00.626Z,96799.64
2018-10-11T00:57:28.080Z,96799.80
2018-10-11T00:59:56.447Z,96792.60
2018-10-11T01:02:23.925Z,96790.53
2018-10-11T01:04:51.416Z,96789.12
2018-10-11T01:07:19.117Z,96782.72
2018-10-11T01:09:46.557Z,96789.63
2018-10-11T01:12:14.128Z,96790.65
2018-10-11T01:14:41.569Z,96792.14
2018-10-11T01:17:09.019Z,96796.66
2018-10-11T01:19:36.501Z,96800.20
2018-10-11T01:22:03.914Z,96810.64
2018-10-11T01:24:31.406Z,96803.56
2018-10-11T01:26:58.855Z,96803.41
2018-10-11T01:29:26.332Z,96804.13
2018-10-11T01:31:53.740Z,96812.00
2018-10-11T01:34:21.202Z,96811.59
2018-10-11T01:36:48.647Z,96811.30
2018-10-11T01:39:16.143Z,96812.42
2018-10-11T01:41:43.575Z,96808.61
2018-10-11T01:44:10.988Z,96812.63
2018-10-11T01:46:38.471Z,96805.06
2018-10-11T01:49:05.922Z,96805.20
2018-10-11T01:51:33.408Z,96803.88
2018-10-11T01:54:00.846Z,96803.79
2018-10-11T01:56:28.278Z,96796.23
2018-10-11T01:58:55.780Z,96807.44
2018-10-11T02:01:23.236Z,96810.62
2018-10-11T02:03:50.644Z,96807.44
2018-10-11T02:06:18.118Z,96805.69
2018-10-11T02:08:45.680Z,96813.00
2018-10-11T02:11:13.144Z,96810.28
2018-10-11T02:13:40.579Z,96812.58
2018-10-11T02:16:08.035Z,96809.47
2018-10-11T02:18:35.487Z,96810.30
2018-10-11T02:21:02.963Z,96806.73
2018-10-11T02:23:30.446Z,96801.03
2018-10-11T02:25:57.888Z,96805.70
2018-10-11T02:28:25.360Z,96807.22
2018-10-11T02:30:52.880Z,96804.08
2018-10-11T02:33:20.329Z,96805.55
2018-10-11T02:35:47.915Z,96800.92
2018-10-11T02:38:15.349Z,96801.58
2018-10-11T02:40:42.801Z,96800.72
2018-10-11T02:43:10.262Z,96799.55
2018-10-11T02:45:37.760Z,96808.22
2018-10-11T02:48:05.210Z,96805.03
2018-10-11T02:50:32.613Z,96803.70
2018-10-11T02:53:00.066Z,96806.34
2018-10-11T02:55:27.555Z,96809.78
2018-10-11T02:58:06.799Z,96819.02
2018-10-11T03:00:34.251Z,96824.19
2018-10-11T03:03:01.766Z,96820.44
2018-10-11T03:05:29.227Z,96813.63
2018-10-11T03:07:56.668Z,96818.78
2018-10-11T03:10:24.151Z,96821.58
2018-10-11T03:12:51.609Z,96825.17
2018-10-11T03:15:19.020Z,96835.42
2018-10-11T03:17:47.255Z,96833.88
2018-10-11T03:20:14.728Z,96834.58
2018-10-11T03:22:42.307Z,96835.08
2018-10-11T03:25:09.899Z,96845.09
2018-10-11T03:27:37.391Z,96843.23
2018-10-11T03:30:04.855Z,96845.02
2018-10-11T03:32:32.337Z,96842.79
2018-10-11T03:34:59.837Z,96845.39
2018-10-11T03:37:27.283Z,96857.50
2018-10-11T03:39:54.769Z,96858.95
2018-10-11T03:42:22.220Z,96859.73
2018-10-11T03:44:49.762Z,96855.89
2018-10-11T03:47:17.219Z,96856.80
2018-10-11T03:52:11.517Z,96854.64
2018-10-11T03:54:38.939Z,96859.36
2018-10-11T03:57:06.350Z,96860.97
2018-10-11T03:59:33.807Z,96863.53
2018-10-11T04:02:01.255Z,96860.55
2018-10-11T04:04:28.758Z,96861.17
2018-10-11T04:06:56.163Z,96864.73
2018-10-11T04:09:23.649Z,96855.59
2018-10-11T04:11:51.127Z,96854.72
2018-10-11T04:14:18.573Z,96860.75
2018-10-11T04:16:46.026Z,96859.93
2018-10-11T04:19:13.460Z,96860.88
2018-10-11T04:21:40.911Z,96854.85
2018-10-11T04:24:08.727Z,96853.33
2018-10-11T04:26:36.167Z,96862.17
2018-10-11T04:29:03.641Z,96861.59
2018-10-11T04:31:31.086Z,96871.39
2018-10-11T04:33:58.560Z,96868.09
2018-10-11T04:36:26.045Z,96853.99
2018-10-11T04:38:53.604Z,96858.25
2018-10-11T04:41:21.199Z,96861.88
2018-10-11T04:43:48.637Z,96864.45
2018-10-11T04:46:16.146Z,96870.23
2018-10-11T04:48:43.639Z,96875.03
2018-10-11T04:51:11.241Z,96864.73
2018-10-11T04:53:39.150Z,96865.23
2018-10-11T04:56:06.537Z,96872.80
2018-10-11T04:58:34.075Z,96873.38
2018-10-11T05:01:01.537Z,96878.87
2018-10-11T05:03:28.987Z,96875.86
2018-10-11T05:05:56.445Z,96872.17
2018-10-11T05:08:23.930Z,96863.75
2018-10-11T05:10:51.382Z,96874.50
2018-10-11T05:13:18.809Z,96879.70
2018-10-11T05:15:46.319Z,96885.88
2018-10-11T05:18:14.406Z,96888.53
2018-10-11T05:20:41.824Z,96896.75
2018-10-11T05:23:09.288Z,96895.56
2018-10-11T05:25:36.734Z,96900.86
2018-10-11T05:28:04.188Z,96909.70
2018-10-11T05:30:31.873Z,96901.36
2018-10-11T05:32:59.333Z,96900.77
2018-10-11T05:35:26.941Z,96898.70
2018-10-11T05:37:54.452Z,96897.30
2018-10-11T05:40:21.949Z,96892.78
2018-10-11T05:42:49.462Z,96893.53
2018-10-11T05:45:16.962Z,96898.36
2018-10-11T05:47:44.469Z,96895.77
2018-10-11T05:50:11.921Z,96908.53
2018-10-11T05:52:39.379Z,96904.77
2018-10-11T05:55:07.059Z,96914.23
2018-10-11T05:57:34.503Z,96927.45
2018-10-11T06:00:01.956Z,96936.34
2018-10-11T06:02:29.416Z,96933.38
2018-10-11T06:04:56.879Z,96939.98
2018-10-11T06:07:24.321Z,96937.00
2018-10-11T06:09:51.791Z,96947.42
2018-10-11T06:12:19.236Z,96945.14
2018-10-11T06:14:46.748Z,96945.69
2018-10-11T06:17:14.206Z,96960.14
2018-10-11T06:19:41.681Z,96958.28
2018-10-11T06:22:09.082Z,96956.67
2018-10-11T06:24:36.602Z,96967.25
2018-10-11T06:27:04.325Z,96969.88
2018-10-11T06:29:31.810Z,96956.88
2018-10-11T06:31:59.272Z,96951.51
2018-10-11T06:34:26.749Z,96955.72
2018-10-11T06:36:54.224Z,96960.36
2018-10-11T06:39:21.943Z,96952.72
2018-10-11T06:41:49.504Z,96951.61
2018-10-11T06:44:17.025Z,96945.97
2018-10-11T06:46:44.512Z,96955.11
2018-10-11T06:49:11.983Z,96949.70
2018-10-11T06:51:39.464Z,96961.34
2018-10-11T06:54:06.924Z,96971.12
2018-10-11T06:56:34.541Z,96987.47
2018-10-11T06:59:02.004Z,96980.84
2018-10-11T07:01:29.588Z,96977.70
2018-10-11T07:03:57.212Z,96982.08
2018-10-11T07:06:24.709Z,96968.22
2018-10-11T07:08:52.145Z,96957.02
2018-10-11T07:11:19.661Z,96961.00
2018-10-11T07:13:47.155Z,96964.35
2018-10-11T07:16:14.579Z,96961.16
2018-10-11T07:18:42.027Z,96977.77
2018-10-11T07:21:09.702Z,96976.16
2018-10-11T07:23:37.138Z,96978.67
2018-10-11T07:26:04.712Z,96978.97
2018-10-11T07:28:32.127Z,96975.06
2018-10-11T07:30:59.629Z,96975.92
2018-10-11T07:33:27.058Z,96975.55
2018-10-11T07:35:54.649Z,96982.87
2018-10-11T07:38:22.598Z,96975.52
2018-10-11T07:40:50.219Z,96965.64
2018-10-11T07:43:17.572Z,96983.34
2018-10-11T07:45:45.147Z,96990.22
2018-10-11T07:48:12.729Z,96994.89
2018-10-11T07:50:40.242Z,96994.62
2018-10-11T07:53:07.731Z,96990.09
2018-10-11T07:55:35.318Z,96989.10
2018-10-11T07:58:02.802Z,96998.14
2018-10-11T08:00:30.317Z,97004.18
2018-10-11T08:02:57.765Z,97000.97
2018-10-11T08:05:25.233Z,97001.77
2018-10-11T08:07:52.746Z,97003.48
2018-10-11T08:10:20.671Z,97000.88
2018-10-11T08:12:48.117Z,97000.86
2018-10-11T08:15:15.575Z,97001.23
2018-10-11T08:17:43.247Z,97002.67
2018-10-11T08:20:10.529Z,96995.06
2018-10-11T08:22:37.962Z,96996.81
2018-10-11T08:25:05.674Z,97000.04
2018-10-11T08:27:33.426Z,96997.14
2018-10-11T08:30:00.893Z,97002.98
2018-10-11T08:32:28.624Z,97005.58
2018-10-11T08:34:55.975Z,97002.34
2018-10-11T08:37:23.539Z,97005.02
2018-10-11T08:39:51.024Z,97001.98
2018-10-11T08:42:19.101Z,97006.66
2018-10-11T08:44:46.700Z,96996.50
2018-10-11T08:47:14.193Z,97001.27
2018-10-11T08:49:41.655Z,97002.52
2018-10-11T08:52:09.131Z,97001.84
2018-10-11T08:54:36.542Z,97004.26
2018-10-11T08:57:04.137Z,97003.94
2018-10-11T08:59:31.656Z,97005.17
2018-10-11T09:01:59.969Z,97004.66
2018-10-11T09:04:27.445Z,97000.00
2018-10-11T09:06:54.858Z,96994.69
2018-10-11T09:09:22.334Z,96995.73
2018-10-11T09:11:49.855Z,96999.31
2018-10-11T09:14:17.312Z,96994.70
2018-10-11T09:16:44.820Z,96993.38
2018-10-11T09:19:13.189Z,96996.70
2018-10-11T09:21:40.614Z,96988.73
2018-10-11T09:24:08.123Z,96993.30
2018-10-11T09:26:35.581Z,96986.92
2018-10-11T09:29:03.024Z,96984.51
2018-10-11T09:31:30.474Z,96990.72
2018-10-11T09:33:57.628Z,96981.23
2018-10-11T09:36:24.631Z,96981.19
2018-10-11T09:38:52.043Z,96980.20
2018-10-11T09:41:19.048Z,96982.27
2018-10-11T09:43:46.062Z,96985.21
2018-10-11T09:46:13.530Z,96981.59
2018-10-11T09:48:41.055Z,96979.19
2018-10-11T09:51:08.112Z,96980.30
2018-10-11T09:53:35.995Z,96969.89
2018-10-11T09:56:03.441Z,96976.67
2018-10-11T09:58:30.920Z,96973.59
2018-10-11T10:00:58.358Z,96976.36
2018-10-11T10:03:25.851Z,96976.27
2018-10-11T10:05:53.580Z,96974.31
2018-10-11T10:08:21.135Z,96974.98
2018-10-11T10:10:48.696Z,96972.05
2018-10-11T10:13:16.139Z,96973.98
2018-10-11T10:15:43.794Z,96972.66
2018-10-11T10:18:10.771Z,96972.78
2018-10-11T10:20:38.328Z,96977.42
2018-10-11T10:23:05.778Z,96973.48
2018-10-11T10:25:33.265Z,96977.39
2018-10-11T10:28:00.791Z,96982.94
2018-10-11T10:30:28.249Z,96986.48
2018-10-11T10:32:55.975Z,96985.03
2018-10-11T10:35:22.965Z,96982.45
2018-10-11T10:37:50.563Z,96983.14
2018-10-11T10:40:17.644Z,96983.19
2018-10-11T10:42:45.221Z,96985.31
2018-10-11T10:45:12.642Z,96988.02
2018-10-11T10:47:39.693Z,96993.61
2018-10-11T10:50:07.805Z,96994.14
2018-10-11T10:52:35.007Z,97000.96
2018-10-11T10:55:02.042Z,96998.90
2018-10-11T10:57:29.108Z,97005.21
2018-10-11T10:59:56.138Z,96998.53
2018-10-11T11:02:23.238Z,96996.88
2018-10-11T11:04:50.331Z,96997.94
2018-10-11T11:07:17.445Z,96994.37
2018-10-11T11:09:44.663Z,96993.88
2018-10-11T11:12:11.733Z,96984.73
2018-10-11T11:14:38.780Z,96980.16
2018-10-11T11:17:05.887Z,96976.63
2018-10-11T11:19:33.107Z,96975.84
2018-10-11T11:22:00.109Z,96975.08
2018-10-11T11:24:27.720Z,96960.47
2018-10-11T11:26:55.358Z,96950.55
2018-10-11T11:29:22.838Z,96943.13
2018-10-11T11:31:50.498Z,96938.93
2018-10-11T11:34:18.568Z,96937.50
2018-10-11T11:36:46.102Z,96940.81
2018-10-11T11:39:13.983Z,96934.80
2018-10-11T11:41:41.400Z,96929.38
2018-10-11T11:44:08.389Z,96924.46
2018-10-11T11:46:35.890Z,96921.03
2018-10-11T11:49:03.484Z,96926.54
2018-10-11T11:51:30.484Z,96927.84
2018-10-11T11:53:57.494Z,96926.62
2018-10-11T11:56:24.497Z,96920.88
2018-10-11T11:58:51.589Z,96930.09
2018-10-11T12:01:19.018Z,96923.66
2018-10-11T12:03:46.092Z,96931.55
2018-10-11T12:06:13.548Z,96925.93
2018-10-11T12:08:40.952Z,96927.13
2018-10-11T12:11:08.535Z,96930.69
2018-10-11T12:13:36.053Z,96924.86
2018-10-11T12:16:03.547Z,96926.34
2018-10-11T12:18:31.014Z,96926.44
2018-10-11T12:20:58.485Z,96925.23
2018-10-11T12:23:25.950Z,96927.17
2018-10-11T12:25:53.921Z,96924.40
2018-10-11T12:28:21.464Z,96927.03
2018-10-11T12:30:48.891Z,96923.55
2018-10-11T12:33:16.449Z,96924.05
2018-10-11T12:35:43.395Z,96922.13
2018-10-11T12:38:10.417Z,96920.96
2018-10-11T12:40:37.418Z,96917.66
2018-10-11T12:43:04.458Z,96913.30
2018-10-11T12:45:31.394Z,96910.59
2018-10-11T12:47:58.414Z,96912.05
2018-10-11T12:50:25.408Z,96919.14
2018-10-11T12:52:52.386Z,96911.21
2018-10-11T12:55:19.442Z,96912.12
2018-10-11T12:57:46.550Z,96905.85
2018-10-11T13:00:13.556Z,96904.92
2018-10-11T13:02:40.614Z,96908.97
2018-10-11T13:05:07.580Z,96912.73
2018-10-11T13:07:34.731Z,96914.78
2018-10-11T13:10:01.749Z,96914.98
2018-10-11T13:12:28.701Z,96921.33
2018-10-11T13:14:55.702Z,96920.03
2018-10-11T13:17:22.677Z,96926.88
2018-10-11T13:19:49.709Z,96928.72
2018-10-11T13:22:16.792Z,96920.09
2018-10-11T13:24:46.835Z,96916.05
2018-10-11T13:27:10.866Z,96913.38
2018-10-11T13:29:38.002Z,96905.25
2018-10-11T13:32:04.985Z,96905.80
2018-10-11T13:34:32.055Z,96902.03
2018-10-11T13:36:58.966Z,96909.05
2018-10-11T13:39:25.955Z,96907.50
2018-10-11T13:41:53.139Z,96907.56
2018-10-11T13:44:20.062Z,96905.30
2018-10-11T13:46:47.073Z,96904.48
2018-10-11T13:49:14.318Z,96900.25
2018-10-11T13:51:41.321Z,96897.55
2018-10-11T13:54:08.391Z,96892.99
2018-10-11T13:56:35.410Z,96884.42
2018-10-11T13:59:06.215Z,96885.14
2018-10-11T14:01:29.445Z,96879.45
2018-10-11T14:03:56.464Z,96886.05
2018-10-11T14:06:24.059Z,96891.91
2018-10-11T14:08:51.103Z,96879.86
2018-10-11T14:11:18.108Z,96880.02
2018-10-11T14:13:45.462Z,96877.19
2018-10-11T14:16:12.515Z,96870.17
2018-10-11T14:18:40.020Z,96868.91
2018-10-11T14:21:07.521Z,96878.14
2018-10-11T14:23:35.052Z,96870.96
2018-10-11T14:26:02.536Z,96867.09
2018-10-11T14:28:29.584Z,96870.77
2018-10-11T14:30:56.730Z,96874.20
2018-10-11T14:33:23.745Z,96874.19
2018-10-11T14:35:50.690Z,96871.67
2018-10-11T14:38:17.779Z,96869.91
2018-10-11T14:40:44.844Z,96877.14
2018-10-11T14:43:11.809Z,96877.15
2018-10-11T14:45:38.873Z,96884.41
2018-10-11T14:48:05.902Z,96875.75
2018-10-11T14:50:32.993Z,96874.49
2018-10-11T14:53:00.029Z,96868.27
2018-10-11T14:55:27.046Z,96864.68
2018-10-11T14:57:54.051Z,96861.52
2018-10-11T15:00:21.056Z,96871.34
2018-10-11T15:02:48.027Z,96864.84
2018-10-11T15:05:15.127Z,96875.36
2018-10-11T15:07:42.263Z,96872.11
2018-10-11T15:10:09.293Z,96872.82
2018-10-11T15:12:36.404Z,96875.80
2018-10-11T15:15:03.423Z,96884.20
2018-10-11T15:17:30.545Z,96881.00
2018-10-11T15:19:58.060Z,96880.19
2018-10-11T15:22:25.581Z,96877.86
2018-10-11T15:24:53.196Z,96886.81
2018-10-11T15:27:20.265Z,96887.45
2018-10-11T15:29:48.137Z,96883.67
2018-10-11T15:32:15.522Z,96877.66
2018-10-11T15:34:43.042Z,96877.98
2018-10-11T15:37:10.519Z,96878.02
2018-10-11T15:39:37.638Z,96882.70
2018-10-11T15:42:04.964Z,96882.43
2018-10-11T15:44:32.029Z,96882.72
2018-10-11T15:46:58.993Z,96888.48
2018-10-11T15:49:26.265Z,96892.45
2018-10-11T15:51:53.269Z,96883.20
2018-10-11T15:54:20.287Z,96889.55
2018-10-11T15:56:47.550Z,96902.58
2018-10-11T15:59:14.506Z,96906.52
2018-10-11T16:01:41.969Z,96908.76
2018-10-11T16:04:08.985Z,96912.06
2018-10-11T16:06:36.976Z,96922.41
2018-10-11T16:09:04.129Z,96924.28
2018-10-11T16:11:31.111Z,96935.69
2018-10-11T16:13:58.299Z,96945.71
2018-10-11T16:16:25.382Z,96948.50
2018-10-11T16:18:52.415Z,96947.38
2018-10-11T16:21:20.393Z,96949.36
2018-10-11T16:23:48.912Z,96958.22
2018-10-11T16:26:15.936Z,96957.42
2018-10-11T16:28:42.947Z,96962.77
2018-10-11T16:31:09.998Z,96958.38
2018-10-11T16:33:37.714Z,96970.20
2018-10-11T16:36:05.282Z,96967.70
2018-10-11T16:38:32.372Z,96969.19
2018-10-11T16:40:59.994Z,96970.37
2018-10-11T16:43:27.560Z,96979.64
2018-10-11T16:45:55.106Z,96983.46
2018-10-11T16:48:22.573Z,96980.23
2018-10-11T16:50:50.118Z,96988.31
2018-10-11T16:53:17.808Z,96992.13
2018-10-11T16:55:45.458Z,96999.20
2018-10-11T16:58:12.994Z,97007.36
2018-10-11T17:00:40.541Z,97014.20
2018-10-11T17:03:08.096Z,97024.00
2018-10-11T17:05:35.540Z,97026.20
2018-10-11T17:08:03.041Z,97035.70
2018-10-11T17:10:30.535Z,97032.59
2018-10-11T17:12:57.599Z,97036.53
2018-10-11T17:15:24.563Z,97037.92
2018-10-11T17:17:51.616Z,97047.02
2018-10-11T17:20:19.130Z,97046.59
2018-10-11T17:22:48.371Z,97050.27
2018-10-11T17:25:15.489Z,97057.09
2018-10-11T17:27:43.019Z,97068.65
2018-10-11T17:30:10.193Z,97075.55
2018-10-11T17:32:38.037Z,97072.72
2018-10-11T17:35:05.260Z,97078.06
2018-10-11T17:37:32.352Z,97079.73
2018-10-11T17:39:59.898Z,97073.38
2018-10-11T17:42:27.501Z,97080.52
2018-10-11T17:44:54.550Z,97080.77
2018-10-11T17:47:21.664Z,97089.41
2018-10-11T17:49:49.018Z,97088.31
2018-10-11T17:52:16.063Z,97096.14
2018-10-11T17:54:43.096Z,97093.36
2018-10-11T17:57:10.211Z,97106.47
2018-10-11T17:59:37.186Z,97106.65
2018-10-11T18:02:04.207Z,97106.95
2018-10-11T18:04:31.308Z,97111.89
2018-10-11T18:06:58.582Z,97119.87
2018-10-11T18:09:25.628Z,97115.67
2018-10-11T18:11:53.096Z,97124.48
2018-10-11T18:14:20.511Z,97123.57
2018-10-11T18:16:47.984Z,97124.48
2018-10-11T18:19:15.424Z,97121.91
2018-10-11T18:21:42.958Z,97124.05
2018-10-11T18:24:10.315Z,97128.77
2018-10-11T18:26:37.822Z,97138.83
2018-10-11T18:29:05.278Z,97143.00
2018-10-11T18:31:32.814Z,97145.86
2018-10-11T18:34:00.327Z,97145.12
2018-10-11T18:36:27.758Z,97154.12
2018-10-11T18:38:56.421Z,97157.55
2018-10-11T18:41:23.888Z,97162.55
2018-10-11T18:43:51.417Z,97158.93
2018-10-11T18:46:19.737Z,97162.29
2018-10-11T18:48:47.279Z,97169.86
2018-10-11T18:51:14.757Z,97167.52
2018-10-11T18:53:42.393Z,97181.23
2018-10-11T18:56:09.826Z,97180.36
2018-10-11T18:58:37.390Z,97188.52
2018-10-11T19:01:04.886Z,97193.57
2018-10-11T19:03:32.505Z,97196.60
2018-10-11T19:06:00.056Z,97205.91
2018-10-11T19:08:27.517Z,97216.67
2018-10-11T19:10:55.000Z,97217.55
2018-10-11T19:13:22.491Z,97218.70
2018-10-11T19:15:50.226Z,97224.16
2018-10-11T19:18:17.699Z,97222.64
2018-10-11T19:20:45.252Z,97238.02
2018-10-11T19:23:12.840Z,97235.22
2018-10-11T19:25:40.324Z,97233.88
2018-10-11T19:28:07.965Z,97242.37
2018-10-11T19:30:35.469Z,97242.20
2018-10-11T19:33:02.925Z,97243.42
2018-10-11T19:35:30.371Z,97248.02
2018-10-11T19:37:57.822Z,97247.34
2018-10-11T19:40:25.819Z,97247.38
2018-10-11T19:42:54.075Z,97245.08
2018-10-11T19:45:21.523Z,97241.92
2018-10-11T19:47:48.967Z,97252.15
2018-10-11T19:50:16.484Z,97260.08
2018-10-11T19:52:43.879Z,97259.66
2018-10-11T19:55:11.330Z,97260.70
2018-10-11T19:57:38.811Z,97277.84
2018-10-11T20:00:06.255Z,97276.16
2018-10-11T20:02:33.715Z,97274.09
2018-10-11T20:05:01.150Z,97277.86
2018-10-11T20:07:28.998Z,97281.13
2018-10-11T20:09:56.500Z,97277.03
2018-10-11T20:12:24.012Z,97274.84
2018-10-11T20:14:51.491Z,97276.27
2018-10-11T20:17:19.005Z,97275.53
2018-10-11T20:19:46.386Z,97277.50
2018-10-11T20:22:13.886Z,97282.59
2018-10-11T20:24:41.309Z,97277.22
2018-10-11T20:27:08.881Z,97275.98
2018-10-11T20:29:36.448Z,97276.34
2018-10-11T20:32:03.896Z,97273.64
2018-10-11T20:34:31.328Z,97277.36
2018-10-11T20:36:58.784Z,97277.91
2018-10-11T20:39:26.301Z,97287.05
2018-10-11T20:41:53.826Z,97293.81
2018-10-11T20:44:21.311Z,97294.87
2018-10-11T20:46:48.735Z,97296.03
2018-10-11T20:49:16.147Z,97303.28
2018-10-11T20:51:43.613Z,97306.91
2018-10-11T20:54:11.595Z,97313.45
2018-10-11T20:56:39.019Z,97319.80
2018-10-11T20:59:06.509Z,97321.92
2018-10-11T21:01:33.965Z,97315.27
2018-10-11T21:04:01.442Z,97308.13
2018-10-11T21:06:28.915Z,97309.94
2018-10-11T21:08:56.425Z,97303.71
2018-10-11T21:11:23.863Z,97302.94
2018-10-11T21:13:51.388Z,97303.60
2018-10-11T21:16:18.873Z,97306.78
2018-10-11T21:18:47.569Z,97301.55
2018-10-11T21:21:15.785Z,97308.89
2018-10-11T21:23:43.260Z,97307.27
2018-10-11T21:26:10.881Z,97308.45
2018-10-11T21:28:38.377Z,97304.77
2018-10-11T21:31:05.893Z,97298.36
2018-10-11T21:33:33.417Z,97300.10
2018-10-11T21:36:00.810Z,97296.13
2018-10-11T21:38:28.578Z,97303.41
2018-10-11T21:40:56.032Z,97304.91
2018-10-11T21:43:23.519Z,97310.47
2018-10-11T21:45:51.077Z,97321.80
2018-10-11T21:48:18.588Z,97322.01
2018-10-11T21:50:46.083Z,97318.94
2018-10-11T21:53:13.653Z,97323.07
2018-10-11T21:55:41.098Z,97324.95
2018-10-11T21:58:08.526Z,97332.92
2018-10-11T22:00:35.923Z,97330.06
2018-10-11T22:03:03.452Z,97332.59
2018-10-11T22:05:30.896Z,97339.48
2018-10-11T22:07:58.356Z,97340.69
2018-10-11T22:10:25.912Z,97346.34
2018-10-11T22:12:53.412Z,97348.60
2018-10-11T22:15:20.836Z,97346.03
2018-10-11T22:17:48.355Z,97346.38
2018-10-11T22:20:15.802Z,97355.38
2018-10-11T22:22:43.255Z,97362.47
2018-10-11T22:25:11.050Z,97355.83
2018-10-11T22:27:38.672Z,97363.73
2018-10-11T22:30:06.195Z,97367.14
2018-10-11T22:32:33.601Z,97388.39
2018-10-11T22:35:01.240Z,97392.73
2018-10-11T22:37:29.467Z,97386.10
2018-10-11T22:39:56.929Z,97372.17
2018-10-11T22:42:24.401Z,97375.25
2018-10-11T22:44:51.822Z,97376.12
2018-10-11T22:47:19.315Z,97366.47
2018-10-11T22:49:46.738Z,97376.88
2018-10-11T22:52:14.218Z,97374.55
2018-10-11T22:54:41.664Z,97375.55
2018-10-11T22:57:09.070Z,97390.14
2018-10-11T22:59:36.558Z,97381.19
2018-10-11T23:02:05.450Z,97385.54
2018-10-11T23:04:32.862Z,97379.37
2018-10-11T23:07:00.306Z,97376.45
2018-10-11T23:09:27.909Z,97378.45
2018-10-11T23:11:55.388Z,97373.52
2018-10-11T23:14:22.958Z,97377.63
2018-10-11T23:16:50.441Z,97380.15
2018-10-11T23:19:17.942Z,97388.18
2018-10-11T23:21:45.371Z,97385.66
2018-10-11T23:24:13.320Z,97389.80
2018-10-11T23:26:40.767Z,97394.02
2018-10-11T23:29:08.191Z,97395.34
2018-10-11T23:31:35.663Z,97399.55
2018-10-11T23:34:03.628Z,97399.00
2018-10-11T23:36:31.073Z,97402.36
2018-10-11T23:38:58.590Z,97409.20
2018-10-11T23:41:26.006Z,97410.23
2018-10-11T23:43:53.461Z,97415.30
2018-10-11T23:46:20.955Z,97421.44
2018-10-11T23:48:48.457Z,97419.02
2018-10-11T23:51:15.963Z,97418.98
2018-10-11T23:53:43.424Z,97423.52
2018-10-11T23:56:10.874Z,97423.78
2018-10-11T23:58:39.262Z,97419.57
